Time,TemperatureF,DewpointF,PressureIn,WindDirection,WindDirectionDegrees,WindSpeedMPH,WindSpeedGustMPH,Humidity,HourlyPrecipIn,Conditions,Clouds,dailyrainin,SolarRadiationWatts/m^2,SoftwareType,DateUTC
2013-02-26 00:00:00,32.2,28.5,30.19,North,5,0.0,0.0,86,0.00,,,0.00,0,Wunderground v.1.15,2013-02-26 05:00:00,
2013-02-26 00:05:00,31.9,28.2,30.19,North,5,0.0,0.0,86,0.00,,,0.00,0,Wunderground v.1.15,2013-02-26 05:05:00,
2013-02-26 00:11:00,31.8,28.1,30.19,North,5,0.0,0.0,86,0.00,,,0.00,0,Wunderground v.1.15,2013-02-26 05:11:00,
2013-02-26 00:20:00,31.3,27.9,30.19,North,5,0.0,2.0,87,0.00,,,0.00,0,Wunderground v.1.15,2013-02-26 05:20:00,
2013-02-26 00:25:00,31.2,27.8,30.19,North,5,0.0,2.0,87,0.00,,,0.00,0,Wunderground v.1.15,2013-02-26 05:25:00,
2013-02-26 00:30:00,31.0,27.9,30.18,North,5,0.0,2.0,88,0.00,,,0.00,0,Wunderground v.1.15,2013-02-26 05:30:00,
2013-02-26 00:35:00,30.9,27.5,30.18,North,5,0.0,2.0,87,0.00,,,0.00,0,Wunderground v.1.15,2013-02-26 05:35:00,
2013-02-26 00:40:00,30.6,27.5,30.18,North,5,0.0,2.0,88,0.00,,,0.00,0,Wunderground v.1.15,2013-02-26 05:40:00,
2013-02-26 00:46:00,30.6,27.5,30.17,North,5,0.0,3.0,88,0.00,,,0.00,0,Wunderground v.1.15,2013-02-26 05:46:00,
2013-02-26 00:55:00,30.4,27.3,30.17,North,5,0.0,3.0,88,0.00,,,0.00,0,Wunderground v.1.15,2013-02-26 05:55:00,
2013-02-26 01:00:00,30.3,27.4,30.18,North,5,0.0,3.0,89,0.00,,,0.00,0,Wunderground v.1.15,2013-02-26 06:00:00,
2013-02-26 01:05:00,30.3,27.4,30.18,North,5,0.0,3.0,89,0.00,,,0.00,0,Wunderground v.1.15,2013-02-26 06:05:00,
2013-02-26 01:11:00,30.1,27.3,30.18,North,5,0.0,3.0,89,0.00,,,0.00,0,Wunderground v.1.15,2013-02-26 06:11:00,
2013-02-26 01:20:00,30.0,27.2,30.17,North,5,0.0,0.0,89,0.00,,,0.00,0,Wunderground v.1.15,2013-02-26 06:20:00,
2013-02-26 01:25:00,29.8,27.2,30.17,North,5,0.0,0.0,90,0.00,,,0.00,0,Wunderground v.1.15,2013-02-26 06:25:00,
2013-02-26 01:30:00,30.0,27.4,30.18,North,5,0.0,0.0,90,0.00,,,0.00,0,Wunderground v.1.15,2013-02-26 06:30:00,
2013-02-26 01:36:00,30.0,27.4,30.18,North,5,1.0,2.0,90,0.00,,,0.00,0,Wunderground v.1.15,2013-02-26 06:36:00,
2013-02-26 01:45:00,29.8,27.2,30.19,North,5,1.0,2.0,90,0.00,,,0.00,0,Wunderground v.1.15,2013-02-26 06:45:00,
2013-02-26 01:50:00,29.8,27.2,30.19,North,5,0.0,2.0,90,0.00,,,0.00,0,Wunderground v.1.15,2013-02-26 06:50:00,
2013-02-26 01:55:00,29.8,27.5,30.19,North,5,0.0,2.0,91,0.00,,,0.00,0,Wunderground v.1.15,2013-02-26 06:55:00,
2013-02-26 02:00:00,29.8,27.5,30.19,North,5,0.0,2.0,91,0.00,,,0.00,0,Wunderground v.1.15,2013-02-26 07:00:00,
2013-02-26 02:05:00,29.7,27.4,30.19,North,5,0.0,2.0,91,0.00,,,0.00,0,Wunderground v.1.15,2013-02-26 07:05:00,
2013-02-26 02:10:00,29.5,27.2,30.19,North,5,0.0,2.0,91,0.00,,,0.00,0,Wunderground v.1.15,2013-02-26 07:10:00,
2013-02-26 02:16:00,29.5,27.2,30.19,North,5,0.0,2.0,91,0.00,,,0.00,0,Wunderground v.1.15,2013-02-26 07:16:00,
2013-02-26 02:25:00,29.7,27.4,30.19,North,5,0.0,2.0,91,0.00,,,0.00,0,Wunderground v.1.15,2013-02-26 07:25:00,
2013-02-26 02:30:00,29.7,27.4,30.18,North,5,0.0,2.0,91,0.00,,,0.00,0,Wunderground v.1.15,2013-02-26 07:30:00,
2013-02-26 02:35:00,29.7,27.4,30.18,North,5,0.0,2.0,91,0.00,,,0.00,0,Wunderground v.1.15,2013-02-26 07:35:00,
2013-02-26 02:41:00,29.7,27.4,30.18,North,5,1.0,2.0,91,0.00,,,0.00,0,Wunderground v.1.15,2013-02-26 07:41:00,
2013-02-26 02:50:00,29.4,27.1,30.18,North,5,2.0,3.0,91,0.00,,,0.00,0,Wunderground v.1.15,2013-02-26 07:50:00,
2013-02-26 02:55:00,29.3,27.0,30.18,North,5,1.0,3.0,91,0.00,,,0.00,0,Wunderground v.1.15,2013-02-26 07:55:00,
2013-02-26 03:01:00,29.3,27.0,30.17,North,5,1.0,1.0,91,0.00,,,0.00,0,Wunderground v.1.15,2013-02-26 08:01:00,
2013-02-26 03:05:00,29.4,27.4,30.17,North,5,0.0,3.0,92,0.00,,,0.00,0,Wunderground v.1.15,2013-02-26 08:05:00,
2013-02-26 03:11:00,29.5,27.5,30.17,North,5,0.0,3.0,92,0.00,,,0.00,0,Wunderground v.1.15,2013-02-26 08:11:00,
2013-02-26 03:20:00,29.4,27.4,30.17,North,5,0.0,3.0,92,0.00,,,0.00,0,Wunderground v.1.15,2013-02-26 08:20:00,
2013-02-26 03:25:00,29.5,27.5,30.17,North,5,0.0,3.0,92,0.00,,,0.00,0,Wunderground v.1.15,2013-02-26 08:25:00,
2013-02-26 03:30:00,29.8,27.8,30.17,North,5,1.0,3.0,92,0.00,,,0.00,0,Wunderground v.1.15,2013-02-26 08:30:00,
2013-02-26 03:35:00,30.3,28.5,30.17,North,5,1.0,3.0,93,0.00,,,0.00,0,Wunderground v.1.15,2013-02-26 08:35:00,
2013-02-26 03:41:00,30.4,28.4,30.17,North,5,1.0,1.0,92,0.00,,,0.00,0,Wunderground v.1.15,2013-02-26 08:41:00,
2013-02-26 03:46:00,30.3,28.3,30.16,North,5,0.0,3.0,92,0.00,,,0.00,0,Wunderground v.1.15,2013-02-26 08:46:00,
2013-02-26 03:55:00,30.0,28.0,30.16,North,5,0.0,3.0,92,0.00,,,0.00,0,Wunderground v.1.15,2013-02-26 08:55:00,
2013-02-26 04:00:00,29.8,27.8,30.16,North,5,0.0,3.0,92,0.00,,,0.00,0,Wunderground v.1.15,2013-02-26 09:00:00,
2013-02-26 04:06:00,30.0,28.0,30.16,North,5,1.0,3.0,92,0.00,,,0.00,0,Wunderground v.1.15,2013-02-26 09:06:00,
2013-02-26 04:15:00,30.3,28.3,30.16,North,5,2.0,4.0,92,0.00,,,0.00,0,Wunderground v.1.15,2013-02-26 09:15:00,
2013-02-26 04:20:00,30.3,28.3,30.16,North,5,1.0,1.0,92,0.00,,,0.00,0,Wunderground v.1.15,2013-02-26 09:20:00,
2013-02-26 04:30:00,30.3,28.5,30.15,North,5,1.0,4.0,93,0.00,,,0.00,0,Wunderground v.1.15,2013-02-26 09:30:00,
2013-02-26 04:35:00,30.4,28.6,30.15,North,5,2.0,4.0,93,0.00,,,0.00,0,Wunderground v.1.15,2013-02-26 09:35:00,
2013-02-26 04:40:00,30.4,28.6,30.15,North,5,1.0,1.0,93,0.00,,,0.00,0,Wunderground v.1.15,2013-02-26 09:40:00,
2013-02-26 04:45:00,30.4,28.6,30.15,North,5,1.0,3.0,93,0.00,,,0.00,0,Wunderground v.1.15,2013-02-26 09:45:00,
2013-02-26 04:51:00,30.4,28.4,30.15,North,5,2.0,4.0,92,0.00,,,0.00,0,Wunderground v.1.15,2013-02-26 09:51:00,
2013-02-26 04:56:00,30.3,28.3,30.15,North,5,2.0,4.0,92,0.00,,,0.00,0,Wunderground v.1.15,2013-02-26 09:56:00,
2013-02-26 05:05:00,30.1,28.1,30.14,North,5,0.0,2.0,92,0.00,,,0.00,0,Wunderground v.1.15,2013-02-26 10:05:00,
2013-02-26 05:10:00,30.1,28.1,30.14,North,5,0.0,4.0,92,0.00,,,0.00,0,Wunderground v.1.15,2013-02-26 10:10:00,
2013-02-26 05:15:00,30.0,28.0,30.14,North,5,0.0,4.0,92,0.00,,,0.00,0,Wunderground v.1.15,2013-02-26 10:15:00,
2013-02-26 05:20:00,30.0,28.0,30.14,North,5,0.0,4.0,92,0.00,,,0.00,0,Wunderground v.1.15,2013-02-26 10:20:00,
2013-02-26 05:25:00,30.0,28.0,30.14,North,5,0.0,4.0,92,0.00,,,0.00,0,Wunderground v.1.15,2013-02-26 10:25:00,
2013-02-26 05:31:00,29.8,27.8,30.15,North,5,0.0,4.0,92,0.00,,,0.00,0,Wunderground v.1.15,2013-02-26 10:31:00,
2013-02-26 05:40:00,29.8,28.0,30.15,North,5,1.0,4.0,93,0.00,,,0.00,0,Wunderground v.1.15,2013-02-26 10:40:00,
2013-02-26 05:45:00,30.0,28.2,30.15,North,5,1.0,4.0,93,0.00,,,0.00,0,Wunderground v.1.15,2013-02-26 10:45:00,
2013-02-26 05:50:00,30.0,28.0,30.15,North,5,1.0,1.0,92,0.00,,,0.00,0,Wunderground v.1.15,2013-02-26 10:50:00,
2013-02-26 05:55:00,29.8,27.8,30.15,North,5,1.0,3.0,92,0.00,,,0.00,0,Wunderground v.1.15,2013-02-26 10:55:00,
2013-02-26 06:00:00,29.8,27.8,30.15,North,5,0.0,3.0,92,0.00,,,0.00,0,Wunderground v.1.15,2013-02-26 11:00:00,
2013-02-26 06:05:00,29.8,28.0,30.15,North,5,0.0,3.0,93,0.00,,,0.00,0,Wunderground v.1.15,2013-02-26 11:05:00,
2013-02-26 06:11:00,29.8,28.0,30.15,North,5,0.0,3.0,93,0.00,,,0.00,0,Wunderground v.1.15,2013-02-26 11:11:00,
2013-02-26 06:20:00,30.0,28.2,30.16,North,5,1.0,2.0,93,0.00,,,0.00,0,Wunderground v.1.15,2013-02-26 11:20:00,
2013-02-26 06:25:00,30.0,28.2,30.16,North,5,2.0,2.0,93,0.00,,,0.00,0,Wunderground v.1.15,2013-02-26 11:25:00,
2013-02-26 06:30:00,30.0,28.2,30.16,North,5,2.0,2.0,93,0.00,,,0.00,0,Wunderground v.1.15,2013-02-26 11:30:00,
2013-02-26 06:35:00,30.1,28.3,30.16,North,5,2.0,2.0,93,0.00,,,0.00,0,Wunderground v.1.15,2013-02-26 11:35:00,
2013-02-26 06:40:00,30.1,28.3,30.16,North,5,2.0,3.0,93,0.00,,,0.00,0,Wunderground v.1.15,2013-02-26 11:40:00,
2013-02-26 06:45:00,30.1,28.3,30.16,North,5,2.0,5.0,93,0.00,,,0.00,0,Wunderground v.1.15,2013-02-26 11:45:00,
2013-02-26 06:50:00,30.3,28.3,30.16,North,9,3.0,5.0,92,0.00,,,0.00,0,Wunderground v.1.15,2013-02-26 11:50:00,
2013-02-26 06:55:00,30.4,28.4,30.16,NNE,22,3.0,5.0,92,0.00,,,0.00,5,Wunderground v.1.15,2013-02-26 11:55:00,
2013-02-26 07:00:00,30.6,28.6,30.16,NNE,26,3.0,5.0,92,0.00,,,0.00,7,Wunderground v.1.15,2013-02-26 12:00:00,
2013-02-26 07:06:00,30.7,28.7,30.16,ENE,59,3.0,7.0,92,0.00,,,0.00,11,Wunderground v.1.15,2013-02-26 12:06:00,
2013-02-26 07:15:00,31.5,29.4,30.15,ENE,65,3.0,9.0,92,0.00,,,0.00,16,Wunderground v.1.15,2013-02-26 12:15:00,
2013-02-26 07:20:00,31.8,29.5,30.15,ENE,65,4.0,9.0,91,0.00,,,0.00,19,Wunderground v.1.15,2013-02-26 12:20:00,
2013-02-26 07:25:00,31.9,29.3,30.15,ENE,65,4.0,9.0,90,0.00,,,0.00,23,Wunderground v.1.15,2013-02-26 12:25:00,
2013-02-26 07:31:00,32.1,29.2,30.15,ENE,65,4.0,4.0,89,0.00,,,0.00,26,Wunderground v.1.15,2013-02-26 12:31:00,
2013-02-26 07:40:00,32.4,29.2,30.15,ENE,70,3.0,3.0,88,0.00,,,0.00,33,Wunderground v.1.15,2013-02-26 12:40:00,
2013-02-26 07:45:00,32.4,29.2,30.15,ENE,74,3.0,10.0,88,0.00,,,0.00,37,Wunderground v.1.15,2013-02-26 12:45:00,
2013-02-26 07:50:00,32.5,29.1,30.15,ENE,73,3.0,10.0,87,0.00,,,0.00,40,Wunderground v.1.15,2013-02-26 12:50:00,
2013-02-26 07:55:00,32.7,29.0,30.15,ENE,65,3.0,10.0,86,0.00,,,0.00,44,Wunderground v.1.15,2013-02-26 12:55:00,
2013-02-26 08:01:00,32.7,28.7,30.16,ENE,67,4.0,4.0,85,0.00,,,0.00,47,Wunderground v.1.15,2013-02-26 13:01:00,
2013-02-26 08:10:00,33.1,28.8,30.16,ENE,66,3.0,10.0,84,0.00,,,0.00,54,Wunderground v.1.15,2013-02-26 13:10:00,
2013-02-26 08:15:00,33.2,28.6,30.15,ENE,66,4.0,10.0,83,0.00,,,0.00,58,Wunderground v.1.15,2013-02-26 13:15:00,
2013-02-26 08:20:00,33.4,28.5,30.15,East,80,5.0,10.0,82,0.00,,,0.00,63,Wunderground v.1.15,2013-02-26 13:20:00,
2013-02-26 08:26:00,33.7,28.5,30.15,ENE,77,4.0,10.0,81,0.00,,,0.00,67,Wunderground v.1.15,2013-02-26 13:26:00,
2013-02-26 08:35:00,34.1,28.6,30.15,ENE,71,5.0,10.0,80,0.00,,,0.00,69,Wunderground v.1.15,2013-02-26 13:35:00,
2013-02-26 08:40:00,34.3,28.5,30.15,ENE,69,5.0,10.0,79,0.00,,,0.00,70,Wunderground v.1.15,2013-02-26 13:40:00,
2013-02-26 08:45:00,34.7,28.5,30.15,ENE,74,4.0,13.0,78,0.00,,,0.00,76,Wunderground v.1.15,2013-02-26 13:45:00,
2013-02-26 08:51:00,35.0,28.5,30.15,NE,53,4.0,4.0,77,0.00,,,0.00,81,Wunderground v.1.15,2013-02-26 13:51:00,
2013-02-26 09:00:00,35.6,28.1,30.15,East,79,5.0,5.0,74,0.00,,,0.00,88,Wunderground v.1.15,2013-02-26 14:00:00,
2013-02-26 09:05:00,35.8,28.3,30.15,ENE,71,5.0,10.0,74,0.00,,,0.00,93,Wunderground v.1.15,2013-02-26 14:05:00,
2013-02-26 09:10:00,36.0,28.2,30.15,ENE,72,5.0,13.0,73,0.00,,,0.00,100,Wunderground v.1.15,2013-02-26 14:10:00,
2013-02-26 09:15:00,36.2,28.4,30.14,East,84,5.0,13.0,73,0.00,,,0.00,111,Wunderground v.1.15,2013-02-26 14:15:00,
2013-02-26 09:20:00,36.3,28.5,30.14,East,94,5.0,5.0,73,0.00,,,0.00,118,Wunderground v.1.15,2013-02-26 14:20:00,
2013-02-26 09:30:00,36.8,29.0,30.15,ENE,78,3.0,13.0,73,0.00,,,0.00,132,Wunderground v.1.15,2013-02-26 14:30:00,
2013-02-26 09:35:00,36.9,29.1,30.15,ENE,70,4.0,13.0,73,0.00,,,0.00,128,Wunderground v.1.15,2013-02-26 14:35:00,
2013-02-26 09:41:00,37.2,29.7,30.15,East,86,4.0,13.0,74,0.00,,,0.00,109,Wunderground v.1.15,2013-02-26 14:41:00,
2013-02-26 09:50:00,37.6,29.7,30.15,East,80,4.0,4.0,73,0.00,,,0.00,114,Wunderground v.1.15,2013-02-26 14:50:00,
2013-02-26 09:55:00,37.8,30.3,30.15,ENE,77,3.0,11.0,74,0.00,,,0.00,114,Wunderground v.1.15,2013-02-26 14:55:00,
2013-02-26 10:00:00,38.0,30.4,30.15,ENE,76,3.0,3.0,74,0.00,,,0.00,100,Wunderground v.1.15,2013-02-26 15:00:00,
2013-02-26 10:06:00,38.2,30.6,30.15,ENE,78,3.0,11.0,74,0.00,,,0.00,97,Wunderground v.1.15,2013-02-26 15:06:00,
2013-02-26 10:15:00,38.6,31.0,30.15,East,86,4.0,11.0,74,0.00,,,0.00,98,Wunderground v.1.15,2013-02-26 15:15:00,
2013-02-26 10:20:00,38.8,31.6,30.15,ENE,74,3.0,10.0,75,0.00,,,0.00,116,Wunderground v.1.15,2013-02-26 15:20:00,
2013-02-26 10:25:00,38.9,31.3,30.15,East,86,3.0,10.0,74,0.00,,,0.00,121,Wunderground v.1.15,2013-02-26 15:25:00,
2013-02-26 10:31:00,39.1,31.5,30.14,ENE,74,5.0,10.0,74,0.00,,,0.00,121,Wunderground v.1.15,2013-02-26 15:31:00,
2013-02-26 10:40:00,39.3,32.0,30.14,East,79,5.0,5.0,75,0.00,,,0.00,141,Wunderground v.1.15,2013-02-26 15:40:00,
2013-02-26 10:45:00,39.6,32.3,30.12,ENE,78,4.0,11.0,75,0.00,,,0.00,151,Wunderground v.1.15,2013-02-26 15:45:00,
2013-02-26 10:50:00,39.9,32.6,30.12,East,84,4.0,4.0,75,0.00,,,0.00,149,Wunderground v.1.15,2013-02-26 15:50:00,
2013-02-26 10:56:00,40.1,32.8,30.12,East,79,5.0,7.0,75,0.00,,,0.00,146,Wunderground v.1.15,2013-02-26 15:56:00,
2013-02-26 11:05:00,40.5,33.2,30.11,ENE,61,5.0,11.0,75,0.00,,,0.00,104,Wunderground v.1.15,2013-02-26 16:05:00,
2013-02-26 11:10:00,40.6,33.3,30.11,ENE,74,5.0,5.0,75,0.00,,,0.00,102,Wunderground v.1.15,2013-02-26 16:10:00,
2013-02-26 11:15:00,40.8,33.5,30.11,East,81,5.0,7.0,75,0.00,,,0.00,98,Wunderground v.1.15,2013-02-26 16:15:00,
2013-02-26 11:20:00,40.9,33.6,30.11,East,90,6.0,15.0,75,0.00,,,0.00,97,Wunderground v.1.15,2013-02-26 16:20:00,
2013-02-26 11:26:00,41.1,33.8,30.11,East,86,5.0,15.0,75,0.00,,,0.00,93,Wunderground v.1.15,2013-02-26 16:26:00,
2013-02-26 11:31:00,41.2,33.9,30.11,ENE,78,5.0,5.0,75,0.00,,,0.00,83,Wunderground v.1.15,2013-02-26 16:31:00,
2013-02-26 11:40:00,41.5,34.2,30.11,East,80,5.0,15.0,75,0.00,,,0.00,65,Wunderground v.1.15,2013-02-26 16:40:00,
2013-02-26 11:45:00,41.6,34.3,30.10,East,83,6.0,15.0,75,0.00,,,0.00,56,Wunderground v.1.15,2013-02-26 16:45:00,
2013-02-26 11:50:00,41.6,34.3,30.10,ENE,76,6.0,6.0,75,0.00,,,0.00,58,Wunderground v.1.15,2013-02-26 16:50:00,
2013-02-26 11:55:00,41.8,34.5,30.10,ENE,69,6.0,12.0,75,0.00,,,0.00,60,Wunderground v.1.15,2013-02-26 16:55:00,
2013-02-26 12:06:00,41.9,34.9,30.08,ENE,66,5.0,12.0,76,0.00,,,0.00,62,Wunderground v.1.15,2013-02-26 17:06:00,
2013-02-26 12:15:00,41.9,35.2,30.07,ENE,70,6.0,15.0,77,0.00,,,0.00,76,Wunderground v.1.15,2013-02-26 17:15:00,
2013-02-26 12:21:00,42.1,35.7,30.07,ENE,69,6.0,6.0,78,0.00,,,0.00,65,Wunderground v.1.15,2013-02-26 17:21:00,
2013-02-26 12:31:00,42.1,35.7,30.06,NE,53,7.0,7.0,78,0.00,,,0.00,84,Wunderground v.1.15,2013-02-26 17:31:00,
2013-02-26 12:36:00,42.2,35.8,30.06,East,87,6.0,15.0,78,0.00,,,0.00,109,Wunderground v.1.15,2013-02-26 17:36:00,
2013-02-26 12:46:00,42.5,36.1,30.05,ENE,66,5.0,17.0,78,0.00,,,0.00,118,Wunderground v.1.15,2013-02-26 17:46:00,
2013-02-26 12:51:00,42.6,36.2,30.05,ENE,71,5.0,17.0,78,0.00,,,0.00,116,Wunderground v.1.15,2013-02-26 17:51:00,
2013-02-26 13:00:00,43.1,36.4,30.04,ENE,72,7.0,17.0,77,0.00,,,0.00,100,Wunderground v.1.15,2013-02-26 18:00:00,
2013-02-26 13:05:00,43.2,36.5,30.04,ESE,107,6.0,17.0,77,0.00,,,0.00,95,Wunderground v.1.15,2013-02-26 18:05:00,
2013-02-26 13:10:00,43.3,36.2,30.04,ENE,76,7.0,17.0,76,0.00,,,0.00,107,Wunderground v.1.15,2013-02-26 18:10:00,
2013-02-26 13:16:00,43.5,36.8,30.03,ENE,76,6.0,17.0,77,0.00,,,0.00,132,Wunderground v.1.15,2013-02-26 18:16:00,
2013-02-26 13:21:00,43.5,36.8,30.03,East,89,6.0,17.0,77,0.00,,,0.00,151,Wunderground v.1.15,2013-02-26 18:21:00,
2013-02-26 13:30:00,43.9,36.8,30.01,ENE,75,7.0,7.0,76,0.00,,,0.00,199,Wunderground v.1.15,2013-02-26 18:30:00,
2013-02-26 13:35:00,44.1,37.0,30.01,East,98,8.0,8.0,76,0.00,,,0.00,176,Wunderground v.1.15,2013-02-26 18:35:00,
2013-02-26 13:40:00,44.3,36.9,30.01,East,94,8.0,17.0,75,0.00,,,0.00,135,Wunderground v.1.15,2013-02-26 18:40:00,
2013-02-26 13:45:00,44.5,37.1,30.01,ENE,76,7.0,17.0,75,0.00,,,0.00,125,Wunderground v.1.15,2013-02-26 18:45:00,
2013-02-26 13:51:00,44.5,37.1,30.01,East,87,7.0,7.0,75,0.00,,,0.00,139,Wunderground v.1.15,2013-02-26 18:51:00,
2013-02-26 14:00:00,44.8,37.0,29.99,ENE,77,7.0,17.0,74,0.00,,,0.00,97,Wunderground v.1.15,2013-02-26 19:00:00,
2013-02-26 14:05:00,44.8,37.0,29.99,East,87,8.0,17.0,74,0.00,,,0.00,100,Wunderground v.1.15,2013-02-26 19:05:00,
2013-02-26 14:10:00,44.9,36.8,29.99,ENE,57,8.0,8.0,73,0.00,,,0.00,98,Wunderground v.1.15,2013-02-26 19:10:00,
2013-02-26 14:15:00,45.1,37.0,29.99,East,84,8.0,15.0,73,0.00,,,0.00,90,Wunderground v.1.15,2013-02-26 19:15:00,
2013-02-26 14:21:00,45.2,37.1,29.99,East,86,8.0,8.0,73,0.00,,,0.01,88,Wunderground v.1.15,2013-02-26 19:21:00,
2013-02-26 14:30:00,45.4,37.6,29.98,ENE,73,7.0,22.0,74,0.00,,,0.01,88,Wunderground v.1.15,2013-02-26 19:30:00,
2013-02-26 14:35:00,45.2,37.4,29.98,East,81,7.0,22.0,74,0.00,,,0.01,83,Wunderground v.1.15,2013-02-26 19:35:00,
2013-02-26 14:40:00,45.2,37.7,29.98,East,80,8.0,8.0,75,0.00,,,0.01,95,Wunderground v.1.15,2013-02-26 19:40:00,
2013-02-26 14:45:00,45.2,37.7,29.97,East,83,8.0,10.0,75,0.00,,,0.01,109,Wunderground v.1.15,2013-02-26 19:45:00,
2013-02-26 14:50:00,45.4,37.6,29.97,ENE,62,9.0,22.0,74,0.00,,,0.01,121,Wunderground v.1.15,2013-02-26 19:50:00,
2013-02-26 14:56:00,45.4,37.9,29.97,ENE,75,9.0,22.0,75,0.00,,,0.01,91,Wunderground v.1.15,2013-02-26 19:56:00,
2013-02-26 15:01:00,45.4,37.9,29.96,ENE,65,9.0,22.0,75,0.00,,,0.01,76,Wunderground v.1.15,2013-02-26 20:01:00,
2013-02-26 15:10:00,45.4,38.3,29.96,East,96,9.0,9.0,76,0.00,,,0.01,63,Wunderground v.1.15,2013-02-26 20:10:00,
2013-02-26 15:15:00,45.4,38.3,29.94,ENE,71,9.0,11.0,76,0.00,,,0.01,56,Wunderground v.1.15,2013-02-26 20:15:00,
2013-02-26 15:21:00,45.4,38.3,29.94,East,96,9.0,26.0,76,0.00,,,0.01,54,Wunderground v.1.15,2013-02-26 20:21:00,
2013-02-26 15:30:00,45.4,38.3,29.93,East,84,9.0,9.0,76,0.00,,,0.01,60,Wunderground v.1.15,2013-02-26 20:30:00,
2013-02-26 15:35:00,45.4,38.3,29.93,East,82,8.0,26.0,76,0.00,,,0.01,49,Wunderground v.1.15,2013-02-26 20:35:00,
2013-02-26 15:40:00,45.4,38.3,29.93,East,93,8.0,26.0,76,0.00,,,0.01,53,Wunderground v.1.15,2013-02-26 20:40:00,
2013-02-26 15:45:00,45.5,38.4,29.92,ENE,70,9.0,26.0,76,0.00,,,0.01,39,Wunderground v.1.15,2013-02-26 20:45:00,
2013-02-26 15:51:00,45.4,38.3,29.92,East,96,10.0,10.0,76,0.00,,,0.01,35,Wunderground v.1.15,2013-02-26 20:51:00,
2013-02-26 16:00:00,45.2,38.4,29.91,ENE,78,9.0,9.0,77,0.00,,,0.01,33,Wunderground v.1.15,2013-02-26 21:00:00,
2013-02-26 16:05:00,45.1,38.3,29.91,East,90,10.0,10.0,77,0.00,,,0.01,28,Wunderground v.1.15,2013-02-26 21:05:00,
2013-02-26 16:11:00,45.1,38.3,29.91,East,100,9.0,9.0,77,0.00,,,0.01,21,Wunderground v.1.15,2013-02-26 21:11:00,
2013-02-26 16:16:00,45.1,38.3,29.90,East,79,9.0,10.0,77,0.00,,,0.01,21,Wunderground v.1.15,2013-02-26 21:16:00,
2013-02-26 16:21:00,44.9,38.5,29.90,ESE,121,8.0,23.0,78,0.00,,,0.01,25,Wunderground v.1.15,2013-02-26 21:21:00,
2013-02-26 16:30:00,44.9,38.5,29.87,East,91,10.0,23.0,78,0.00,,,0.01,28,Wunderground v.1.15,2013-02-26 21:30:00,
2013-02-26 16:35:00,44.9,38.5,29.87,ENE,78,9.0,23.0,78,0.00,,,0.01,23,Wunderground v.1.15,2013-02-26 21:35:00,
2013-02-26 16:41:00,44.9,38.5,29.87,East,84,9.0,9.0,78,0.00,,,0.01,21,Wunderground v.1.15,2013-02-26 21:41:00,
2013-02-26 16:50:00,44.9,38.5,29.86,East,88,9.0,9.0,78,0.00,,,0.01,12,Wunderground v.1.15,2013-02-26 21:50:00,
2013-02-26 16:55:00,44.9,38.5,29.86,ENE,76,8.0,23.0,78,0.00,,,0.01,11,Wunderground v.1.15,2013-02-26 21:55:00,
2013-02-26 17:01:00,45.1,39.0,29.85,ESE,105,8.0,23.0,79,0.00,,,0.01,7,Wunderground v.1.15,2013-02-26 22:01:00,
2013-02-26 17:11:00,44.6,39.1,29.85,East,94,8.0,8.0,81,0.00,,,0.02,5,Wunderground v.1.15,2013-02-26 22:11:00,
2013-02-26 17:20:00,44.3,39.8,29.83,East,98,8.0,24.0,84,0.08,,,0.03,7,Wunderground v.1.15,2013-02-26 22:20:00,
2013-02-26 17:26:00,44.2,39.7,29.83,East,79,8.0,24.0,84,0.05,,,0.03,5,Wunderground v.1.15,2013-02-26 22:26:00,
2013-02-26 17:35:00,44.3,40.1,29.82,ENE,73,10.0,13.0,85,0.04,,,0.04,0,Wunderground v.1.15,2013-02-26 22:35:00,
2013-02-26 17:41:00,44.3,40.1,29.82,East,84,9.0,24.0,85,0.04,,,0.04,0,Wunderground v.1.15,2013-02-26 22:41:00,
2013-02-26 17:50:00,44.5,40.6,29.80,ENE,78,10.0,22.0,86,0.00,,,0.04,0,Wunderground v.1.15,2013-02-26 22:50:00,
2013-02-26 17:55:00,44.5,40.3,29.80,East,98,10.0,22.0,85,0.00,,,0.04,0,Wunderground v.1.15,2013-02-26 22:55:00,
2013-02-26 18:00:00,44.5,40.6,29.79,ENE,78,9.0,9.0,86,0.00,,,0.04,0,Wunderground v.1.15,2013-02-26 23:00:00,
2013-02-26 18:06:00,44.5,40.6,29.79,ENE,65,8.0,22.0,86,0.00,,,0.04,0,Wunderground v.1.15,2013-02-26 23:06:00,
2013-02-26 18:11:00,44.5,40.6,29.79,ENE,75,8.0,22.0,86,0.00,,,0.04,0,Wunderground v.1.15,2013-02-26 23:11:00,
2013-02-26 18:20:00,44.5,40.9,29.77,East,94,9.0,24.0,87,0.00,,,0.04,0,Wunderground v.1.15,2013-02-26 23:20:00,
2013-02-26 18:25:00,44.5,40.9,29.77,ENE,74,11.0,24.0,87,0.00,,,0.04,0,Wunderground v.1.15,2013-02-26 23:25:00,
2013-02-26 18:30:00,44.5,41.2,29.74,East,88,11.0,11.0,88,0.00,,,0.04,0,Wunderground v.1.15,2013-02-26 23:30:00,
2013-02-26 18:35:00,44.3,41.0,29.74,East,94,11.0,24.0,88,0.00,,,0.04,0,Wunderground v.1.15,2013-02-26 23:35:00,
2013-02-26 18:40:00,44.3,41.3,29.74,East,82,10.0,10.0,89,0.00,,,0.04,0,Wunderground v.1.15,2013-02-26 23:40:00,
2013-02-26 18:45:00,44.3,41.3,29.75,East,86,9.0,25.0,89,0.00,,,0.04,0,Wunderground v.1.15,2013-02-26 23:45:00,
2013-02-26 18:51:00,44.3,41.6,29.75,ESE,117,8.0,8.0,90,0.00,,,0.04,0,Wunderground v.1.15,2013-02-26 23:51:00,
2013-02-26 19:01:00,44.6,42.1,29.73,East,94,9.0,25.0,91,0.00,,,0.05,0,Wunderground v.1.15,2013-02-27 00:01:00,
2013-02-26 19:06:00,44.9,42.7,29.73,ENE,61,10.0,25.0,92,0.12,,,0.06,0,Wunderground v.1.15,2013-02-27 00:06:00,
2013-02-26 19:15:00,45.4,43.2,29.73,ENE,76,10.0,25.0,92,0.10,,,0.08,0,Wunderground v.1.15,2013-02-27 00:15:00,
2013-02-26 19:21:00,45.7,43.5,29.73,East,90,10.0,25.0,92,0.13,,,0.09,0,Wunderground v.1.15,2013-02-27 00:21:00,
2013-02-26 19:30:00,45.7,43.8,29.72,East,81,10.0,10.0,93,0.06,,,0.09,0,Wunderground v.1.15,2013-02-27 00:30:00,
2013-02-26 19:35:00,45.8,43.9,29.72,East,84,9.0,25.0,93,0.05,,,0.10,0,Wunderground v.1.15,2013-02-27 00:35:00,
2013-02-26 19:41:00,45.8,43.9,29.72,ENE,76,9.0,25.0,93,0.05,,,0.10,0,Wunderground v.1.15,2013-02-27 00:41:00,
2013-02-26 19:46:00,45.8,43.9,29.71,ESE,104,9.0,25.0,93,0.05,,,0.10,0,Wunderground v.1.15,2013-02-27 00:46:00,
2013-02-26 19:55:00,46.1,44.2,29.71,East,94,10.0,23.0,93,0.08,,,0.12,0,Wunderground v.1.15,2013-02-27 00:55:00,
2013-02-26 20:01:00,46.1,44.2,29.68,East,94,11.0,23.0,93,0.08,,,0.12,0,Wunderground v.1.15,2013-02-27 01:01:00,
2013-02-26 20:06:00,46.2,44.3,29.68,East,92,12.0,23.0,93,0.05,,,0.12,0,Wunderground v.1.15,2013-02-27 01:06:00,
2013-02-26 20:15:00,46.2,44.6,29.67,East,98,11.0,27.0,94,0.00,,,0.12,0,Wunderground v.1.15,2013-02-27 01:15:00,
2013-02-26 20:21:00,46.4,44.8,29.67,East,99,11.0,11.0,94,0.00,,,0.12,0,Wunderground v.1.15,2013-02-27 01:21:00,
2013-02-26 20:30:00,46.8,45.2,29.65,East,80,12.0,12.0,94,0.00,,,0.12,0,Wunderground v.1.15,2013-02-27 01:30:00,
2013-02-26 20:35:00,46.8,44.9,29.65,ENE,76,13.0,13.0,93,0.00,,,0.12,0,Wunderground v.1.15,2013-02-27 01:35:00,
2013-02-26 20:40:00,46.8,44.9,29.65,East,79,13.0,27.0,93,0.00,,,0.13,0,Wunderground v.1.15,2013-02-27 01:40:00,
2013-02-26 20:46:00,47.0,45.1,29.64,East,87,11.0,27.0,93,0.00,,,0.13,0,Wunderground v.1.15,2013-02-27 01:46:00,
2013-02-26 20:55:00,47.3,45.7,29.64,ENE,74,11.0,26.0,94,0.00,,,0.13,0,Wunderground v.1.15,2013-02-27 01:55:00,
2013-02-26 21:00:00,47.4,45.8,29.64,East,81,10.0,26.0,94,0.00,,,0.13,0,Wunderground v.1.15,2013-02-27 02:00:00,
2013-02-26 21:05:00,47.6,46.0,29.64,East,101,11.0,26.0,94,0.00,,,0.13,0,Wunderground v.1.15,2013-02-27 02:05:00,
2013-02-26 21:10:00,47.6,46.0,29.64,NE,55,11.0,26.0,94,0.21,,,0.15,0,Wunderground v.1.15,2013-02-27 02:10:00,
2013-02-26 21:16:00,47.7,46.1,29.63,ENE,78,11.0,26.0,94,0.12,,,0.16,0,Wunderground v.1.15,2013-02-27 02:16:00,
2013-02-26 21:21:00,47.7,46.1,29.63,ENE,73,10.0,10.0,94,0.08,,,0.16,0,Wunderground v.1.15,2013-02-27 02:21:00,
2013-02-26 21:30:00,47.9,46.3,29.63,East,90,9.0,9.0,94,0.12,,,0.18,0,Wunderground v.1.15,2013-02-27 02:30:00,
2013-02-26 21:35:00,48.0,46.6,29.63,ENE,78,8.0,25.0,95,0.08,,,0.18,0,Wunderground v.1.15,2013-02-27 02:35:00,
2013-02-26 21:40:00,48.2,46.8,29.63,East,83,8.0,8.0,95,0.47,,,0.20,0,Wunderground v.1.15,2013-02-27 02:40:00,
2013-02-26 21:45:00,48.2,46.8,29.63,East,92,6.0,25.0,95,0.19,,,0.21,0,Wunderground v.1.15,2013-02-27 02:45:00,
2013-02-26 21:51:00,48.2,46.8,29.63,ESE,107,5.0,5.0,95,0.15,,,0.22,0,Wunderground v.1.15,2013-02-27 02:51:00,
2013-02-26 21:56:00,48.2,46.8,29.63,East,86,5.0,25.0,95,0.08,,,0.23,0,Wunderground v.1.15,2013-02-27 02:56:00,
2013-02-26 22:05:00,48.3,46.9,29.63,ESE,109,6.0,25.0,95,0.05,,,0.23,0,Wunderground v.1.15,2013-02-27 03:05:00,
2013-02-26 22:10:00,48.5,47.4,29.63,East,96,7.0,25.0,96,0.05,,,0.24,0,Wunderground v.1.15,2013-02-27 03:10:00,
2013-02-26 22:16:00,48.5,47.4,29.62,East,88,8.0,25.0,96,0.05,,,0.24,0,Wunderground v.1.15,2013-02-27 03:16:00,
2013-02-26 22:21:00,48.6,47.5,29.62,ESE,119,8.0,18.0,96,0.04,,,0.24,0,Wunderground v.1.15,2013-02-27 03:21:00,
2013-02-26 22:30:00,48.9,47.8,29.60,ESE,105,6.0,6.0,96,0.00,,,0.24,0,Wunderground v.1.15,2013-02-27 03:30:00,
2013-02-26 22:35:00,49.1,48.0,29.60,East,101,6.0,18.0,96,0.00,,,0.24,0,Wunderground v.1.15,2013-02-27 03:35:00,
2013-02-26 22:40:00,49.4,48.3,29.60,East,82,6.0,18.0,96,0.00,,,0.24,0,Wunderground v.1.15,2013-02-27 03:40:00,
2013-02-26 22:46:00,49.8,48.7,29.58,SE,143,7.0,18.0,96,0.00,,,0.24,0,Wunderground v.1.15,2013-02-27 03:46:00,
2013-02-26 22:56:00,50.2,49.1,29.58,East,101,6.0,18.0,96,0.00,,,0.24,0,Wunderground v.1.15,2013-02-27 03:56:00,
2013-02-26 23:06:00,50.7,49.6,29.57,East,90,7.0,8.0,96,0.00,,,0.24,0,Wunderground v.1.15,2013-02-27 04:06:00,
2013-02-26 23:15:00,50.8,49.7,29.56,ENE,68,7.0,16.0,96,0.00,,,0.24,0,Wunderground v.1.15,2013-02-27 04:15:00,
2013-02-26 23:20:00,51.0,49.9,29.56,ENE,72,7.0,7.0,96,0.00,,,0.24,0,Wunderground v.1.15,2013-02-27 04:20:00,
2013-02-26 23:26:00,51.0,49.9,29.56,ENE,74,7.0,16.0,96,0.00,,,0.24,0,Wunderground v.1.15,2013-02-27 04:26:00,
2013-02-26 23:31:00,51.0,49.9,29.54,East,91,7.0,7.0,96,0.00,,,0.24,0,Wunderground v.1.15,2013-02-27 04:31:00,
2013-02-26 23:40:00,51.1,50.0,29.54,East,85,7.0,7.0,96,0.00,,,0.24,0,Wunderground v.1.15,2013-02-27 04:40:00,
2013-02-26 23:45:00,51.0,49.9,29.54,ENE,68,6.0,20.0,96,0.00,,,0.24,0,Wunderground v.1.15,2013-02-27 04:45:00,
2013-02-26 23:51:00,51.1,50.0,29.54,East,96,5.0,20.0,96,0.00,,,0.24,0,Wunderground v.1.15,2013-02-27 04:51:00,